YSSYUTAV

Guest
Details From YSSY - Sydney Intl
To UTAV - Turkmenabat
Flight Number -
Tags Generated
Created
Modified
Stats Distance 6,544 nm / 12,120 km
Max Altitude 0 ft / 0 m
Waypoints 6
Social Downloads 0
Likes 0
Share VATSIM

Download

Looking for another format? Having issues loading an existing format? Contact us
Advertisement - Login to hide

Notes

Generated

Route

YSSY NRMWC DARIS TRZ11 LBA UTAV

ID Type Via Altitude Latitude Longitude Leg Dist Tot Dist Heading (true) Name
O YSSY APT - 0 ft / 0 m -33.94962˚ 151.18832˚ - 0 nm - -
NRMWC FIX - 0 ft / 0 m -32.04216˚ 148.06261˚ 194 nm 194 nm 305° / 307° -
DARIS FIX - 0 ft / 0 m 35.19972˚ 71.84944˚ 5891 nm 6085 nm 307° / 304° -
TRZ11 FIX - 0 ft / 0 m 37.36525˚ 67.52282˚ 246 nm 6332 nm 303° / 301° -
LBA VOR - 0 ft / 0 m 39.09000˚ 63.61167˚ 211 nm 6543 nm 301° / 298° TURKMENABAT VOR-DME
O UTAV APT - 0 ft / 0 m 39.09444˚ 63.60667˚ 0 nm 6544 nm 319° / 319° -

Altitude Profile

Advertisement - Login to hide

Weather


0- 5 10 15 20 25 30 35+ Temperature / ° C

Clouds and Precipitation
Forecast for 2018-05-26 00:00 UTC. Updated 2 hours ago

Ground ~20,000 ft ~40,000 ft Winds

YSSY

Details ICAO YSSY (SYD)
Name Sydney Intl
Region Australia
Timezone Australia/Sydney (UTC+10.0)
Stats Elevation 21 ft / 6 m (AMSL)
Location -33.949273° 151.181347°
Runways 3
Magnetic Variation 12.604° E

METAR

YSSY 260100Z 32006KT CAVOK 18/10 Q1029 NOSIG

Decode

TAF

TAF YSSY 252309Z 2600/2706 34005KT CAVOK FM260400 03010KT CAVOK FM261200 29008KT CAVOK FM270400 03010KT CAVOK

Decode

Departure Runways

ID Width Length Bearing (true) Bearing (mag) Surface Threshold Offset Overrun Length
07 148 ft / 45 m 8,285 ft / 2,525 m 74.13° 61.53° Asphalt 0 ft / 0 m 0 ft / 0 m
16L 148 ft / 45 m 8,018 ft / 2,444 m 167.81° 155.21° Asphalt 758 ft / 231 m 0 ft / 0 m
16R 148 ft / 45 m 13,033 ft / 3,973 m 167.86° 155.26° Asphalt 279 ft / 85 m 0 ft / 0 m
25 148 ft / 45 m 8,285 ft / 2,525 m 254.12° 241.52° Asphalt 324 ft / 99 m 0 ft / 0 m
34L 148 ft / 45 m 13,033 ft / 3,973 m 347.85° 335.25° Asphalt 0 ft / 0 m 0 ft / 0 m
34R 148 ft / 45 m 8,018 ft / 2,444 m 347.81° 335.21° Asphalt 125 ft / 38 m 0 ft / 0 m

UTAV

Details ICAO UTAV
Name TURKMENABAT
Region Tajikistan, Turkmenistan and Uzbekistan
Timezone Asia/Ashgabat (UTC+5.0)
Stats Elevation 630 ft / 192 m (AMSL)
Location 39.083333° 63.613334°
Runways 1
Magnetic Variation 5.073° E

METAR

UTAV 260100Z 18004KT CAVOK 19/03 Q1008 NOSIG

Decode

TAF

Not found

Destination Runways

ID Width Length Bearing (true) Bearing (mag) Surface Threshold Offset Overrun Length
15 138 ft / 42 m 8,945 ft / 2,727 m 155.02° 149.95° Asphalt 0 ft / 0 m 0 ft / 0 m
33 138 ft / 42 m 8,945 ft / 2,727 m 335.03° 329.96° Asphalt 0 ft / 0 m 0 ft / 0 m